Time;durP1;ratioP1;P1;durP2;ratioP2;P2;SDS_P1;SDS_P2;PMS_P1;PMS_P2;Temp;Humidity;BMP_temperature;BMP_pressure;BME280_temperature;BME280_humidity;BME280_pressure;Samples;Min_cycle;Max_cycle;Signal;HPM_P1;HPM_P2
2022/04/29 00:00:24;;;;;;;10.45;7.10;;;7.50;59.30;;;;;;5052926;28;20285;-63
2022/04/29 00:02:52;;;;;;;9.50;7.18;;;7.40;59.20;;;;;;5054469;28;20198;-63
2022/04/29 00:05:19;;;;;;;7.82;6.57;;;7.40;60.30;;;;;;5053395;28;20191;-63
2022/04/29 00:07:47;;;;;;;11.90;6.20;;;7.30;59.60;;;;;;5054242;28;20277;-62
2022/04/29 00:10:16;;;;;;;8.90;6.03;;;7.20;59.50;;;;;;5052821;28;20190;-64
2022/04/29 00:12:46;;;;;;;7.95;5.93;;;7.10;59.80;;;;;;5054453;28;20377;-63
2022/04/29 00:15:15;;;;;;;6.68;6.03;;;7.10;59.90;;;;;;5053819;28;20192;-62
2022/04/29 00:17:43;;;;;;;9.63;6.20;;;7.10;60.00;;;;;;5054192;28;20267;-63
2022/04/29 00:20:11;;;;;;;6.85;5.30;;;7.10;60.30;;;;;;5052931;28;20281;-64
2022/04/29 00:22:38;;;;;;;8.77;5.88;;;7.00;59.10;;;;;;5054210;28;20269;-63
2022/04/29 00:25:07;;;;;;;6.25;5.10;;;7.00;59.70;;;;;;5053443;28;20274;-62
2022/04/29 00:27:35;;;;;;;7.05;6.00;;;6.90;60.00;;;;;;5053316;28;20183;-62
2022/04/29 00:30:05;;;;;;;7.85;5.70;;;7.00;60.40;;;;;;5053184;28;20249;-63
2022/04/29 00:32:32;;;;;;;7.00;6.15;;;6.90;61.20;;;;;;5054133;28;20233;-63
2022/04/29 00:34:58;;;;;;;7.97;6.45;;;6.80;60.50;;;;;;5052946;28;20269;-62
2022/04/29 00:37:25;;;;;;;8.30;6.93;;;6.80;60.40;;;;;;5053623;28;20196;-62
2022/04/29 00:39:52;;;;;;;8.10;6.90;;;6.80;59.60;;;;;;5052473;28;20226;-62
2022/04/29 00:42:22;;;;;;;6.45;5.72;;;6.80;59.90;;;;;;5053724;28;20195;-63
2022/04/29 00:44:49;;;;;;;10.55;7.47;;;6.70;60.90;;;;;;5053070;28;20194;-63
2022/04/29 00:47:19;;;;;;;7.55;6.45;;;6.70;61.30;;;;;;5053198;28;20272;-63
2022/04/29 00:49:48;;;;;;;7.30;5.82;;;6.70;61.30;;;;;;5053377;28;20573;-64
2022/04/29 00:52:18;;;;;;;11.32;7.05;;;6.70;61.30;;;;;;5033387;28;20385;-63
2022/04/29 00:54:50;;;;;;;9.32;6.25;;;6.60;61.10;;;;;;5033417;28;20704;-63
2022/04/29 00:57:23;;;;;;;7.47;6.63;;;6.50;61.50;;;;;;5052743;28;20205;-63
2022/04/29 00:59:54;;;;;;;11.55;6.68;;;6.50;61.50;;;;;;5051946;28;20656;-62
2022/04/29 01:02:23;;;;;;;6.80;5.90;;;6.40;61.30;;;;;;5053137;28;20197;-62
2022/04/29 01:04:55;;;;;;;7.90;6.53;;;6.40;61.80;;;;;;5052252;28;20273;-62
2022/04/29 01:07:22;;;;;;;7.10;5.93;;;6.40;62.20;;;;;;5053198;28;20276;-63
2022/04/29 01:09:49;;;;;;;7.95;5.88;;;6.50;62.70;;;;;;5051529;28;20221;-62
2022/04/29 01:12:16;;;;;;;7.13;5.78;;;6.50;63.10;;;;;;5052969;28;20197;-63
2022/04/29 01:14:44;;;;;;;10.02;5.57;;;6.50;63.10;;;;;;5051285;28;20213;-63
2022/04/29 01:17:10;;;;;;;9.65;5.15;;;6.50;62.70;;;;;;5050605;28;20197;-63
2022/04/29 01:19:40;;;;;;;8.68;6.35;;;6.40;61.60;;;;;;5051321;28;20277;-62
2022/04/29 01:22:08;;;;;;;8.73;6.40;;;6.40;61.00;;;;;;5053018;28;20190;-62
2022/04/29 01:24:35;;;;;;;6.00;5.40;;;6.30;60.20;;;;;;5052332;28;20190;-62
2022/04/29 01:27:09;;;;;;;7.65;6.20;;;6.20;59.80;;;;;;5052693;28;20251;-62
2022/04/29 01:29:36;;;;;;;12.95;6.32;;;6.00;60.80;;;;;;5051225;28;20250;-62
2022/04/29 01:32:04;;;;;;;9.27;6.85;;;5.90;61.60;;;;;;5052473;28;20277;-62
2022/04/29 01:34:31;;;;;;;10.60;6.57;;;5.80;61.70;;;;;;5051886;28;20178;-62
2022/04/29 01:36:58;;;;;;;8.07;4.63;;;5.70;62.30;;;;;;5052521;28;20190;-62
2022/04/29 01:39:27;;;;;;;6.38;5.72;;;5.50;62.30;;;;;;5051989;28;20645;-62
2022/04/29 01:41:54;;;;;;;9.30;5.32;;;5.50;61.80;;;;;;5052569;28;20186;-62
2022/04/29 01:44:21;;;;;;;7.28;6.32;;;5.50;61.80;;;;;;5051695;28;20281;-62
2022/04/29 01:46:47;;;;;;;8.23;6.63;;;5.40;62.70;;;;;;5052688;28;20218;-62
2022/04/29 01:49:15;;;;;;;7.78;6.22;;;5.30;64.20;;;;;;5051818;28;20679;-63
2022/04/29 01:51:42;;;;;;;8.73;6.22;;;5.30;64.60;;;;;;5052531;28;20544;-62
2022/04/29 01:54:10;;;;;;;9.20;6.75;;;5.30;64.20;;;;;;5050686;28;20182;-64
2022/04/29 01:56:40;;;;;;;9.70;8.13;;;5.30;64.30;;;;;;5052123;28;20553;-63
2022/04/29 01:59:07;;;;;;;8.10;6.57;;;5.20;65.40;;;;;;5052437;28;20194;-63
2022/04/29 02:01:37;;;;;;;9.45;7.90;;;5.30;66.40;;;;;;5051686;28;20218;-62
2022/04/29 02:04:04;;;;;;;7.63;6.32;;;5.30;66.80;;;;;;5051027;28;20688;-62
2022/04/29 02:06:31;;;;;;;11.48;5.88;;;5.30;67.60;;;;;;5050596;28;20183;-62
2022/04/29 02:08:58;;;;;;;9.23;5.65;;;5.30;68.00;;;;;;5052173;28;20218;-63
2022/04/29 02:11:25;;;;;;;12.73;6.03;;;5.30;67.20;;;;;;5051694;28;20525;-62
2022/04/29 02:13:54;;;;;;;12.00;6.55;;;5.30;67.60;;;;;;5052254;28;20551;-62
2022/04/29 02:16:21;;;;;;;8.15;6.32;;;5.20;67.70;;;;;;5051715;28;20618;-62
2022/04/29 02:18:47;;;;;;;9.35;6.30;;;5.20;68.60;;;;;;5052177;28;20217;-63
2022/04/29 02:21:14;;;;;;;8.05;6.35;;;5.20;68.00;;;;;;5055483;28;20282;-63
2022/04/29 02:23:41;;;;;;;6.65;5.75;;;5.10;67.70;;;;;;5055479;28;20280;-63
2022/04/29 02:26:08;;;;;;;7.05;5.88;;;5.00;67.70;;;;;;5056366;28;20281;-62
2022/04/29 02:28:35;;;;;;;7.70;6.30;;;5.00;67.90;;;;;;5055671;28;20309;-62
2022/04/29 02:31:04;;;;;;;8.60;6.20;;;5.00;67.50;;;;;;5054990;28;20186;-62
2022/04/29 02:33:31;;;;;;;6.85;5.78;;;5.00;68.50;;;;;;5056179;28;20301;-62
2022/04/29 02:35:59;;;;;;;6.68;5.90;;;4.90;68.80;;;;;;5054401;28;20785;-63
2022/04/29 02:38:26;;;;;;;9.93;6.68;;;4.80;69.40;;;;;;5055078;28;20194;-62
2022/04/29 02:40:54;;;;;;;7.43;5.85;;;4.80;69.60;;;;;;5055434;28;20186;-62
2022/04/29 02:43:21;;;;;;;9.95;7.07;;;4.90;70.20;;;;;;5055822;28;20194;-62
2022/04/29 02:45:48;;;;;;;7.95;5.80;;;4.90;70.60;;;;;;5054786;28;20246;-62
2022/04/29 02:48:18;;;;;;;7.97;6.07;;;4.90;71.10;;;;;;5055859;28;20277;-62
2022/04/29 02:50:45;;;;;;;7.90;6.10;;;4.90;71.30;;;;;;5055390;28;20530;-63
2022/04/29 02:53:12;;;;;;;6.90;5.45;;;5.00;71.60;;;;;;5055742;28;20297;-62
2022/04/29 02:55:39;;;;;;;11.40;7.35;;;4.90;70.00;;;;;;5055015;28;20192;-65
2022/04/29 02:58:06;;;;;;;8.25;6.35;;;4.90;70.40;;;;;;5055756;28;20229;-62
2022/04/29 03:00:33;;;;;;;7.45;6.30;;;5.00;70.90;;;;;;5055441;28;20628;-63
2022/04/29 03:03:00;;;;;;;7.38;5.43;;;5.00;71.30;;;;;;5054963;28;20271;-63
2022/04/29 03:05:28;;;;;;;7.65;5.60;;;5.10;70.60;;;;;;5054968;28;20214;-62
2022/04/29 03:07:55;;;;;;;10.98;4.80;;;5.00;68.90;;;;;;5055317;28;20195;-62
2022/04/29 03:10:22;;;;;;;7.75;5.00;;;5.00;69.10;;;;;;5054372;28;20214;-62
2022/04/29 03:12:49;;;;;;;7.55;6.25;;;5.00;69.60;;;;;;5055140;28;20556;-63
2022/04/29 03:15:16;;;;;;;10.40;6.45;;;4.90;71.30;;;;;;5054319;28;20197;-62
2022/04/29 03:20:30;;;;;;;7.82;6.65;;;4.90;70.80;;;;;;5054496;28;20280;-62
2022/04/29 03:22:57;;;;;;;8.15;7.13;;;4.80;70.00;;;;;;5054992;28;20201;-61
2022/04/29 03:25:23;;;;;;;7.35;6.53;;;4.90;70.30;;;;;;5054445;28;20548;-62
2022/04/29 03:27:50;;;;;;;6.53;5.50;;;4.90;70.10;;;;;;5054693;28;20671;-62
2022/04/29 03:30:17;;;;;;;6.10;5.50;;;4.90;70.50;;;;;;5053969;28;20245;-62
2022/04/29 03:32:52;;;;;;;7.85;5.60;;;4.90;71.00;;;;;;5054258;28;20563;-64
2022/04/29 03:35:19;;;;;;;8.18;5.97;;;4.90;71.60;;;;;;5054066;28;20186;-62
2022/04/29 03:37:48;;;;;;;10.35;6.50;;;4.90;71.50;;;;;;5054791;28;20616;-62
2022/04/29 03:40:16;;;;;;;7.32;6.43;;;4.90;71.50;;;;;;5054112;28;20221;-62
2022/04/29 03:42:43;;;;;;;7.53;5.90;;;4.90;71.50;;;;;;5054419;28;20194;-62
2022/04/29 03:45:11;;;;;;;6.40;5.15;;;4.90;70.90;;;;;;5054019;28;20194;-63
2022/04/29 03:47:37;;;;;;;9.95;5.50;;;4.90;69.50;;;;;;5053913;28;20291;-62
2022/04/29 03:50:06;;;;;;;7.00;6.28;;;4.80;68.10;;;;;;5054477;28;20704;-63
2022/04/29 03:52:33;;;;;;;6.50;5.60;;;4.80;67.80;;;;;;5053450;28;20262;-62
2022/04/29 03:55:02;;;;;;;7.28;5.40;;;4.80;67.60;;;;;;5054596;28;20681;-62
2022/04/29 03:57:29;;;;;;;8.77;6.13;;;4.70;67.40;;;;;;5053837;28;20186;-63
2022/04/29 03:59:56;;;;;;;6.82;5.05;;;4.60;66.90;;;;;;5054590;28;20601;-62
2022/04/29 04:02:22;;;;;;;7.28;5.28;;;4.50;67.10;;;;;;5053948;28;20273;-61
2022/04/29 04:04:49;;;;;;;6.32;5.15;;;4.40;67.10;;;;;;5054762;28;20598;-63
2022/04/29 04:07:16;;;;;;;7.05;5.70;;;4.30;68.00;;;;;;5054789;28;20229;-62
2022/04/29 04:09:43;;;;;;;7.32;5.47;;;4.20;67.70;;;;;;5054100;28;20305;-63
2022/04/29 04:12:12;;;;;;;5.70;4.80;;;4.20;67.90;;;;;;5054830;28;20194;-63
2022/04/29 04:14:39;;;;;;;6.22;5.10;;;4.10;69.10;;;;;;5054122;28;20193;-62
2022/04/29 04:17:07;;;;;;;7.40;5.05;;;4.20;69.50;;;;;;5054220;28;20218;-61
2022/04/29 04:19:34;;;;;;;6.18;4.63;;;4.20;69.60;;;;;;5054777;28;20202;-62
2022/04/29 04:22:01;;;;;;;9.43;5.75;;;4.10;68.80;;;;;;5053907;28;20575;-62
2022/04/29 04:24:28;;;;;;;10.63;6.18;;;4.00;70.10;;;;;;5054467;28;20252;-61
2022/04/29 04:26:55;;;;;;;7.55;6.78;;;4.00;71.20;;;;;;5053889;28;20182;-62
2022/04/29 04:29:23;;;;;;;7.93;5.88;;;4.10;71.90;;;;;;5054389;28;20255;-62
2022/04/29 04:31:51;;;;;;;7.78;6.05;;;4.10;71.80;;;;;;5053579;28;20221;-62
2022/04/29 04:37:03;;;;;;;8.73;6.90;;;4.00;72.30;;;;;;5053958;28;20198;-62
2022/04/29 04:39:30;;;;;;;8.40;6.03;;;4.00;72.80;;;;;;5054381;28;20293;-61
2022/04/29 04:41:57;;;;;;;10.10;6.65;;;4.10;72.80;;;;;;5052755;28;20193;-62
2022/04/29 04:44:25;;;;;;;7.25;5.53;;;4.00;73.20;;;;;;5054267;28;20198;-61
2022/04/29 04:46:52;;;;;;;7.53;5.47;;;4.00;73.70;;;;;;5052966;28;20301;-62
2022/04/29 04:49:20;;;;;;;5.97;4.78;;;4.10;73.30;;;;;;5053847;28;20232;-61
2022/04/29 04:51:47;;;;;;;7.57;5.85;;;4.10;73.50;;;;;;5053053;28;20281;-61
2022/04/29 04:54:14;;;;;;;8.95;7.07;;;4.20;73.90;;;;;;5054040;28;20248;-63
2022/04/29 04:56:41;;;;;;;8.32;6.55;;;4.30;74.30;;;;;;5052983;28;20194;-63
2022/04/29 04:59:08;;;;;;;7.78;5.40;;;4.30;74.20;;;;;;5053773;28;20256;-62
2022/04/29 05:01:37;;;;;;;6.35;5.25;;;4.40;74.50;;;;;;5052218;28;20187;-61
2022/04/29 05:04:03;;;;;;;6.35;5.28;;;4.40;74.30;;;;;;5053900;28;20213;-61
2022/04/29 05:06:30;;;;;;;6.35;5.15;;;4.50;75.40;;;;;;5052195;28;20274;-62
2022/04/29 05:08:57;;;;;;;8.52;5.40;;;4.60;75.70;;;;;;5053662;28;20195;-62
2022/04/29 05:11:24;;;;;;;8.25;5.70;;;4.70;76.10;;;;;;5053007;28;20260;-62
2022/04/29 05:13:51;;;;;;;8.20;6.22;;;4.70;76.20;;;;;;5053409;28;20656;-62
2022/04/29 05:16:18;;;;;;;11.45;7.20;;;4.80;77.30;;;;;;5052727;28;20272;-62
2022/04/29 05:18:46;;;;;;;10.73;7.28;;;4.80;77.30;;;;;;5053466;28;20194;-62
2022/04/29 05:21:13;;;;;;;11.88;9.57;;;4.80;77.60;;;;;;5052998;28;20281;-62
2022/04/29 05:23:40;;;;;;;11.68;8.48;;;4.90;78.20;;;;;;5052084;28;20200;-65
2022/04/29 05:26:07;;;;;;;19.17;9.77;;;5.00;78.00;;;;;;5052020;28;20205;-61
2022/04/29 05:28:34;;;;;;;14.52;9.65;;;5.00;78.00;;;;;;5049177;28;20604;-62
2022/04/29 05:31:02;;;;;;;11.23;8.02;;;5.10;78.40;;;;;;5050189;28;20236;-62
2022/04/29 05:33:29;;;;;;;12.68;8.07;;;5.30;78.60;;;;;;5051882;28;20222;-61
2022/04/29 05:35:59;;;;;;;8.27;6.78;;;5.50;78.80;;;;;;5051405;28;20205;-61
2022/04/29 05:42:14;;;;;;;9.77;7.25;;;5.60;78.70;;;;;;5050993;28;20183;-63
2022/04/29 05:44:09;;;;;;;9.60;6.97;;;6.00;78.80;;;;;;5008855;28;20191;-62
2022/04/29 05:46:37;;;;;;;12.63;8.02;;;6.20;77.90;;;;;;5036433;28;20756;-63
2022/04/29 05:49:04;;;;;;;7.25;5.80;;;6.30;77.10;;;;;;5049335;28;20626;-62
2022/04/29 05:51:33;;;;;;;8.40;6.38;;;6.40;76.80;;;;;;5051383;28;20198;-62
2022/04/29 05:54:01;;;;;;;7.57;5.85;;;6.50;77.60;;;;;;5050797;28;20202;-63
2022/04/29 05:56:28;;;;;;;8.65;7.05;;;6.70;77.00;;;;;;5043427;28;20273;-62
2022/04/29 05:58:55;;;;;;;9.00;7.22;;;6.80;77.10;;;;;;5049107;28;20722;-63
2022/04/29 06:01:22;;;;;;;9.65;6.00;;;7.00;77.20;;;;;;5048325;28;20229;-62
2022/04/29 06:03:49;;;;;;;9.05;6.65;;;7.10;76.90;;;;;;5049192;28;20629;-63
2022/04/29 06:06:16;;;;;;;9.40;7.03;;;7.30;76.40;;;;;;5049928;28;20289;-64
2022/04/29 06:08:44;;;;;;;10.57;6.28;;;7.50;75.80;;;;;;5044868;28;20293;-62
2022/04/29 06:11:11;;;;;;;8.32;5.90;;;7.60;75.20;;;;;;5050880;28;20214;-63
2022/04/29 06:13:38;;;;;;;8.30;6.85;;;7.60;74.80;;;;;;5050297;28;20274;-64
2022/04/29 06:16:08;;;;;;;7.78;6.15;;;7.80;74.80;;;;;;5051186;28;20537;-62
2022/04/29 06:18:35;;;;;;;8.18;6.50;;;8.00;74.80;;;;;;5049701;28;20186;-62
2022/04/29 06:21:02;;;;;;;7.47;5.90;;;8.10;73.80;;;;;;5050561;28;20220;-62
2022/04/29 06:23:29;;;;;;;5.65;4.45;;;8.20;73.20;;;;;;5047471;28;20183;-64
2022/04/29 06:25:58;;;;;;;6.90;6.15;;;8.40;73.30;;;;;;5047454;28;20183;-62
2022/04/29 06:28:25;;;;;;;7.78;6.00;;;8.60;73.70;;;;;;5050686;28;20190;-64
2022/04/29 06:30:52;;;;;;;7.30;5.25;;;8.80;73.50;;;;;;5049477;28;20325;-62
2022/04/29 06:33:19;;;;;;;8.00;5.25;;;8.80;72.70;;;;;;5049294;28;20269;-62
2022/04/29 06:35:47;;;;;;;8.52;5.72;;;9.00;73.00;;;;;;5052624;28;20598;-63
2022/04/29 06:38:14;;;;;;;7.13;5.05;;;9.20;72.30;;;;;;5052695;28;20193;-63
2022/04/29 06:40:41;;;;;;;8.25;5.80;;;9.40;71.80;;;;;;5052748;28;20187;-63
2022/04/29 06:43:09;;;;;;;6.07;5.05;;;9.50;72.30;;;;;;5052724;28;20220;-62
2022/04/29 06:45:36;;;;;;;6.38;5.40;;;9.70;72.20;;;;;;5052584;28;20635;-62
2022/04/29 06:48:04;;;;;;;11.95;6.03;;;9.80;71.50;;;;;;5052693;28;20190;-63
2022/04/29 06:50:31;;;;;;;7.70;5.47;;;10.00;69.20;;;;;;5052636;28;20214;-63
2022/04/29 06:52:58;;;;;;;6.10;5.50;;;10.20;68.80;;;;;;5052746;28;20625;-62
2022/04/29 06:55:25;;;;;;;5.90;5.10;;;10.30;67.80;;;;;;5052441;28;20225;-63
2022/04/29 06:57:52;;;;;;;6.50;4.85;;;10.40;67.10;;;;;;5052053;28;20222;-64
2022/04/29 07:00:21;;;;;;;6.55;5.13;;;10.60;66.60;;;;;;5052130;28;20273;-62
2022/04/29 07:02:48;;;;;;;7.10;4.72;;;10.70;66.80;;;;;;5052466;28;20645;-63
2022/04/29 07:05:15;;;;;;;8.20;4.65;;;10.90;66.80;;;;;;5052476;28;20277;-63
2022/04/29 07:07:42;;;;;;;6.72;5.38;;;11.10;67.70;;;;;;5055039;28;20193;-63
2022/04/29 07:10:10;;;;;;;5.93;4.95;;;11.30;66.40;;;;;;5055919;28;20245;-62
2022/04/29 07:12:42;;;;;;;7.07;5.70;;;11.40;64.30;;;;;;5056026;28;20204;-63
2022/04/29 07:15:10;;;;;;;6.47;5.50;;;11.60;64.80;;;;;;5056159;28;20226;-63
2022/04/29 07:17:38;;;;;;;11.65;5.45;;;11.80;64.10;;;;;;5056135;28;20218;-63
2022/04/29 07:20:07;;;;;;;6.85;5.88;;;11.90;63.20;;;;;;5056022;28;20182;-62
2022/04/29 07:22:35;;;;;;;6.35;4.82;;;12.10;62.30;;;;;;5055908;28;20281;-63
2022/04/29 07:25:02;;;;;;;6.35;5.72;;;12.30;61.60;;;;;;5056024;28;20566;-63
2022/04/29 07:27:29;;;;;;;8.15;6.30;;;12.50;61.90;;;;;;5055807;28;20186;-63
2022/04/29 07:29:56;;;;;;;9.20;5.80;;;12.60;61.00;;;;;;5055373;28;20297;-64
2022/04/29 07:32:25;;;;;;;7.20;6.50;;;12.80;60.50;;;;;;5055841;28;20282;-63
2022/04/29 07:43:07;;;;;;;6.07;4.80;;;13.60;58.10;;;;;;5055796;28;20228;-63
2022/04/29 07:45:34;;;;;;;5.97;5.37;;;13.80;58.00;;;;;;5055163;28;20524;-63
2022/04/29 07:48:01;;;;;;;7.60;5.13;;;14.00;57.20;;;;;;5055495;28;20448;-63
2022/04/29 07:50:30;;;;;;;8.83;5.77;;;14.20;57.10;;;;;;5055281;28;20564;-63
2022/04/29 07:52:57;;;;;;;6.10;5.30;;;14.40;57.70;;;;;;5055302;28;20433;-63
2022/04/29 07:55:24;;;;;;;5.03;4.53;;;14.50;57.10;;;;;;5055357;28;20528;-63
2022/04/29 07:57:51;;;;;;;8.07;5.90;;;14.70;57.10;;;;;;5054984;28;20499;-63
2022/04/29 08:00:19;;;;;;;6.83;5.93;;;14.90;56.30;;;;;;5055295;28;20755;-63
2022/04/29 08:02:46;;;;;;;7.43;4.93;;;15.10;56.20;;;;;;5055285;28;20516;-63
2022/04/29 08:05:13;;;;;;;6.47;4.90;;;15.20;55.50;;;;;;5054882;28;20520;-64
2022/04/29 08:07:41;;;;;;;5.90;4.40;;;15.40;55.00;;;;;;5055247;28;20467;-64
2022/04/29 08:10:09;;;;;;;5.50;4.57;;;15.60;55.00;;;;;;5054953;28;20484;-63
2022/04/29 08:12:37;;;;;;;6.57;5.30;;;15.80;54.90;;;;;;5054904;28;20429;-63
2022/04/29 08:15:05;;;;;;;5.37;3.97;;;15.90;52.60;;;;;;5054883;28;20431;-63
2022/04/29 08:17:32;;;;;;;8.13;4.90;;;16.10;52.10;;;;;;5054561;28;20487;-64
2022/04/29 08:19:59;;;;;;;7.80;4.87;;;16.30;52.30;;;;;;5054836;28;20517;-63
2022/04/29 08:22:26;;;;;;;5.73;4.30;;;16.50;51.30;;;;;;5054652;28;20513;-63
2022/04/29 08:24:54;;;;;;;5.00;4.00;;;16.80;52.40;;;;;;5054110;28;20552;-64
2022/04/29 08:27:21;;;;;;;5.00;3.57;;;17.00;52.20;;;;;;5054571;28;20451;-65
2022/04/29 08:29:48;;;;;;;6.03;4.07;;;17.20;48.00;;;;;;5054574;28;20515;-63
2022/04/29 08:32:16;;;;;;;4.30;3.00;;;17.40;43.40;;;;;;5054783;28;20439;-63
2022/04/29 08:34:43;;;;;;;4.17;2.60;;;17.50;43.60;;;;;;5054723;28;20808;-63
2022/04/29 08:37:11;;;;;;;3.80;2.97;;;17.60;44.90;;;;;;5054482;28;20437;-64
2022/04/29 08:39:37;;;;;;;4.50;2.73;;;17.70;43.50;;;;;;5054381;28;20532;-63
2022/04/29 08:42:07;;;;;;;4.10;2.77;;;17.80;43.20;;;;;;5054515;28;20468;-63
2022/04/29 08:44:35;;;;;;;4.67;3.23;;;18.10;42.80;;;;;;5054365;28;20443;-63
2022/04/29 08:47:04;;;;;;;3.80;2.80;;;18.30;39.10;;;;;;5054096;28;20495;-63
2022/04/29 08:49:33;;;;;;;3.70;3.10;;;18.40;37.40;;;;;;5054184;28;20433;-63
2022/04/29 08:52:01;;;;;;;4.43;2.90;;;18.50;38.00;;;;;;5054110;28;20476;-62
2022/04/29 09:00:00;;;;;;;9.30;3.37;;;18.70;39.60;;;;;;5054260;28;20428;-63
2022/04/29 09:02:28;;;;;;;3.70;3.10;;;18.80;40.80;;;;;;5053921;28;20437;-63
2022/04/29 09:04:57;;;;;;;4.93;2.70;;;19.10;40.90;;;;;;5054034;28;20523;-63
2022/04/29 09:07:53;;;;;;;4.00;2.33;;;19.10;39.80;;;;;;5054013;28;20437;-63
2022/04/29 09:10:20;;;;;;;3.30;2.77;;;19.30;40.00;;;;;;5053708;28;20495;-63
2022/04/29 09:12:47;;;;;;;3.30;2.10;;;19.40;37.90;;;;;;5053734;28;20530;-63
2022/04/29 09:15:16;;;;;;;4.70;3.33;;;19.40;38.90;;;;;;5053723;28;20432;-63
2022/04/29 09:17:45;;;;;;;3.77;2.60;;;19.60;37.80;;;;;;5053635;28;20428;-64
2022/04/29 09:20:16;;;;;;;3.40;2.50;;;19.80;34.90;;;;;;5053628;28;20511;-64
2022/04/29 09:22:49;;;;;;;4.60;3.10;;;20.00;34.70;;;;;;5053736;28;20498;-65
2022/04/29 09:25:18;;;;;;;5.77;3.03;;;20.20;36.70;;;;;;5053628;28;20508;-63
2022/04/29 09:28:03;;;;;;;5.53;3.00;;;20.40;34.70;;;;;;5053613;28;20516;-63
2022/04/29 09:30:39;;;;;;;4.13;2.30;;;20.30;34.20;;;;;;5052754;28;20476;-63
2022/04/29 09:33:07;;;;;;;3.70;2.70;;;20.30;36.50;;;;;;5053598;28;20436;-63
2022/04/29 09:35:42;;;;;;;4.00;2.60;;;20.40;36.30;;;;;;5053339;28;20433;-63
2022/04/29 09:40:56;;;;;;;6.57;2.47;;;20.70;36.30;;;;;;5053397;28;20551;-63
2022/04/29 09:43:32;;;;;;;3.87;2.63;;;20.80;33.50;;;;;;5052999;28;20491;-63
2022/04/29 09:46:15;;;;;;;7.00;2.67;;;20.90;33.40;;;;;;5053015;28;20468;-63
2022/04/29 09:49:07;;;;;;;3.03;2.17;;;20.90;35.20;;;;;;5051542;28;20523;-63
2022/04/29 09:51:59;;;;;;;4.40;2.70;;;21.10;35.10;;;;;;5052863;28;20538;-63
2022/04/29 09:54:28;;;;;;;4.90;2.30;;;21.50;33.90;;;;;;5038352;28;20433;-63
2022/04/29 09:57:10;;;;;;;4.93;2.37;;;21.80;32.80;;;;;;5053040;28;20429;-63
2022/04/29 09:59:40;;;;;;;3.30;2.10;;;21.90;32.20;;;;;;5053260;28;20433;-63
2022/04/29 10:02:08;;;;;;;3.60;1.97;;;22.00;31.00;;;;;;5053161;28;20429;-63
2022/04/29 10:04:36;;;;;;;3.87;1.97;;;22.20;30.90;;;;;;5053139;28;20507;-64
2022/04/29 10:07:05;;;;;;;2.97;1.90;;;22.20;32.00;;;;;;5053325;28;20429;-62
2022/04/29 10:09:33;;;;;;;2.80;1.90;;;22.30;27.80;;;;;;5052959;28;20444;-62
2022/04/29 10:12:02;;;;;;;3.27;2.23;;;22.20;29.90;;;;;;5052975;28;20515;-63
2022/04/29 10:14:32;;;;;;;8.07;2.00;;;22.20;31.70;;;;;;5052606;28;20429;-63
2022/04/29 10:22:50;;;;;;;3.80;2.33;;;22.50;28.90;;;;;;5047934;28;20428;-64
2022/04/29 10:25:18;;;;;;;3.20;2.27;;;22.50;30.10;;;;;;5052805;28;20433;-63
2022/04/29 10:27:46;;;;;;;3.10;2.50;;;22.50;30.00;;;;;;5052387;28;20433;-63
2022/04/29 10:30:15;;;;;;;2.97;2.10;;;22.50;28.80;;;;;;5052811;28;20465;-63
2022/04/29 10:33:03;;;;;;;3.30;2.07;;;22.50;28.30;;;;;;5052607;28;20485;-64
2022/04/29 10:35:50;;;;;;;4.40;2.13;;;22.50;29.30;;;;;;5052599;28;20480;-63
2022/04/29 10:38:19;;;;;;;3.33;2.03;;;22.40;29.30;;;;;;5052708;28;20464;-65
2022/04/29 10:40:49;;;;;;;4.40;2.27;;;22.30;28.50;;;;;;5053805;28;20825;-63
2022/04/29 10:43:18;;;;;;;4.00;2.40;;;22.30;30.00;;;;;;5056605;28;20440;-63
2022/04/29 10:46:20;;;;;;;5.57;2.63;;;22.50;30.00;;;;;;5056447;28;20464;-64
2022/04/29 10:48:47;;;;;;;3.10;2.10;;;22.60;30.20;;;;;;5056734;28;20436;-63
2022/04/29 10:51:17;;;;;;;3.67;2.10;;;22.80;29.80;;;;;;5056093;28;20571;-63
2022/04/29 10:53:46;;;;;;;4.10;2.20;;;23.00;29.10;;;;;;5056514;28;20436;-63
2022/04/29 10:56:36;;;;;;;4.00;2.17;;;23.10;29.60;;;;;;5056234;28;20431;-63
2022/04/29 10:59:14;;;;;;;4.93;2.50;;;23.40;30.80;;;;;;5048312;28;20479;-63
2022/04/29 11:01:49;;;;;;;4.80;2.77;;;23.60;29.00;;;;;;5056641;28;20441;-64
2022/04/29 11:04:46;;;;;;;4.37;2.37;;;23.90;29.20;;;;;;5056219;28;20510;-63
2022/04/29 11:07:36;;;;;;;5.37;2.70;;;24.20;28.40;;;;;;5056175;28;20510;-63
2022/04/29 11:10:04;;;;;;;6.20;2.40;;;24.30;27.60;;;;;;5050831;28;20433;-64
2022/04/29 11:12:31;;;;;;;3.70;2.37;;;24.30;27.10;;;;;;5055804;28;20495;-64
2022/04/29 11:15:14;;;;;;;5.70;2.50;;;24.40;27.60;;;;;;5055486;28;20782;-63
2022/04/29 11:17:43;;;;;;;3.73;2.47;;;24.50;27.80;;;;;;5056122;28;20439;-63
2022/04/29 11:20:18;;;;;;;3.57;2.30;;;24.50;27.80;;;;;;5055500;28;20439;-64
2022/04/29 11:25:55;;;;;;;3.90;1.93;;;24.80;28.50;;;;;;5055876;28;20464;-63
2022/04/29 11:28:22;;;;;;;3.63;2.33;;;25.00;26.40;;;;;;5035869;28;20820;-63
2022/04/29 11:30:51;;;;;;;3.53;2.77;;;25.20;25.80;;;;;;5046753;28;20441;-64
2022/04/29 11:33:25;;;;;;;4.30;2.20;;;25.30;26.90;;;;;;5054834;28;20433;-63
2022/04/29 11:35:57;;;;;;;3.07;1.97;;;25.30;26.30;;;;;;5055315;28;20439;-64
2022/04/29 11:38:24;;;;;;;4.40;2.47;;;25.40;26.70;;;;;;5050225;28;20519;-64
2022/04/29 11:40:52;;;;;;;4.03;2.77;;;25.60;26.70;;;;;;5054319;28;20440;-64
2022/04/29 11:43:23;;;;;;;3.47;2.57;;;25.70;26.20;;;;;;5054347;28;20907;-64
2022/04/29 11:46:02;;;;;;;3.40;2.23;;;25.80;25.50;;;;;;5054210;28;20454;-65
2022/04/29 11:48:30;;;;;;;3.33;1.83;;;25.80;24.60;;;;;;5054545;28;20439;-63
2022/04/29 11:50:58;;;;;;;3.20;1.90;;;25.60;24.40;;;;;;5054539;28;20531;-64
2022/04/29 11:53:26;;;;;;;4.27;2.03;;;25.60;23.50;;;;;;5053626;28;20438;-65
2022/04/29 11:55:54;;;;;;;3.50;1.80;;;25.50;24.50;;;;;;5054846;28;20429;-63
2022/04/29 11:58:21;;;;;;;4.03;2.13;;;25.40;24.90;;;;;;5055106;28;20429;-63
2022/04/29 12:00:54;;;;;;;3.10;2.40;;;25.40;24.90;;;;;;5055183;28;20441;-64
2022/04/29 12:03:22;;;;;;;5.57;2.87;;;25.50;25.40;;;;;;5054906;28;20438;-64
2022/04/29 12:05:53;;;;;;;2.53;2.00;;;25.50;24.20;;;;;;5054817;28;20443;-63
2022/04/29 12:08:22;;;;;;;3.20;1.90;;;25.50;24.10;;;;;;5055061;28;20561;-63
2022/04/29 12:10:49;;;;;;;4.13;2.27;;;25.40;24.90;;;;;;5055042;28;20492;-63
2022/04/29 12:13:19;;;;;;;2.93;1.80;;;25.40;24.90;;;;;;5054619;28;20522;-63
2022/04/29 12:15:46;;;;;;;3.73;2.97;;;25.40;25.50;;;;;;5055063;28;20436;-64
2022/04/29 12:18:15;;;;;;;4.97;2.40;;;25.50;26.10;;;;;;5055119;28;20422;-63
2022/04/29 12:20:44;;;;;;;6.10;1.93;;;25.60;26.20;;;;;;5054513;28;20496;-64
2022/04/29 12:23:19;;;;;;;5.20;1.70;;;25.80;26.00;;;;;;5054949;28;20448;-65
2022/04/29 12:25:46;;;;;;;4.03;2.00;;;25.90;26.00;;;;;;5054598;28;20859;-64
2022/04/29 12:28:16;;;;;;;3.00;2.37;;;26.10;24.50;;;;;;5054680;28;20459;-63
2022/04/29 12:36:32;;;;;;;2.60;1.70;;;25.90;23.90;;;;;;5054494;28;20905;-63
2022/04/29 12:39:10;;;;;;;3.43;2.00;;;25.90;23.10;;;;;;5054458;28;20458;-63
2022/04/29 12:41:37;;;;;;;4.70;2.10;;;25.70;24.80;;;;;;5054101;28;20921;-63
2022/04/29 12:45:03;;;;;;;3.07;2.33;;;25.60;24.60;;;;;;5054438;28;20489;-63
2022/04/29 12:46:59;;;;;;;2.37;1.63;;;25.60;24.20;;;;;;5053744;28;20463;-64
2022/04/29 12:49:26;;;;;;;3.17;2.00;;;25.50;24.50;;;;;;5054316;28;20498;-63
2022/04/29 12:51:59;;;;;;;3.77;2.57;;;25.40;24.30;;;;;;5054253;28;20516;-63
2022/04/29 12:54:28;;;;;;;3.13;1.97;;;25.40;24.70;;;;;;5054129;28;20522;-66
2022/04/29 12:56:55;;;;;;;5.23;2.77;;;25.20;24.10;;;;;;5054128;28;20457;-64
2022/04/29 12:59:23;;;;;;;3.17;2.00;;;25.10;24.00;;;;;;5054076;28;20763;-64
2022/04/29 13:01:52;;;;;;;4.07;2.00;;;25.10;24.80;;;;;;5053994;28;20889;-63
2022/04/29 13:04:19;;;;;;;3.83;2.10;;;25.00;25.10;;;;;;5053261;28;20493;-63
2022/04/29 13:06:46;;;;;;;6.17;2.27;;;24.90;24.70;;;;;;5053951;28;20520;-63
2022/04/29 13:09:14;;;;;;;3.40;1.90;;;24.90;23.40;;;;;;5053872;28;20747;-63
2022/04/29 13:11:44;;;;;;;4.83;2.23;;;24.80;23.80;;;;;;5053944;28;20479;-64
2022/04/29 13:14:14;;;;;;;3.77;2.23;;;24.70;23.30;;;;;;5054010;28;20509;-63
2022/04/29 13:16:43;;;;;;;2.90;2.03;;;24.70;23.60;;;;;;5054006;28;20429;-64
2022/04/29 13:19:10;;;;;;;4.07;1.90;;;24.50;22.50;;;;;;5053435;28;20425;-63
2022/04/29 13:21:37;;;;;;;2.80;1.53;;;24.20;22.40;;;;;;5053749;28;20472;-63
2022/04/29 13:24:05;;;;;;;2.90;1.80;;;24.10;23.80;;;;;;5053571;28;20476;-68
2022/04/29 13:26:32;;;;;;;4.07;2.67;;;24.00;23.30;;;;;;5053601;28;20441;-63
2022/04/29 13:29:00;;;;;;;3.40;2.10;;;23.70;24.60;;;;;;5053570;28;20437;-63
2022/04/29 13:31:27;;;;;;;3.40;2.10;;;23.70;24.30;;;;;;5053610;28;20443;-63
2022/04/29 13:33:54;;;;;;;3.33;2.03;;;23.70;24.70;;;;;;5053599;28;20424;-63
2022/04/29 13:36:21;;;;;;;4.03;2.50;;;23.70;23.50;;;;;;5053233;28;20524;-63
2022/04/29 13:38:48;;;;;;;2.50;1.67;;;23.50;23.00;;;;;;5052853;28;20439;-63